Tiempo atmosférico en la estación meteorológica de Aller, Asturias (750 m.)



Fecha
DESCASC
Temp. máxima en grados centígrados (hora)
DESCASC
Temp. mínima en grados centígrados (hora)
DESCASC
Temp. media en grados centígrados
DESCASC
Racha de viento máxima en m/sg (hora)
DESCASC
Velocidad máxima media en intervalos de 10 minutos(hora)
DESCASC
Precipitaciones diarias en mm
DESCASC
Precipitaciones de 00:00 a 06:00 en mm
DESCASC
Precipitaciones de 06:00 a 12:00 en mm
DESCASC
Precipitaciones de 12:00 a 18:00 en mm
DESCASC
Precipitaciones de 18:00 a 24:00 en mm
DESCASC
18-02-2018 9.1 (15:00) -0.3 (05:20) 4.4 2.78 (16:30) 1.94 (09:50) 4.2 0 0 0 4.2
17-02-2018 8.2 (14:10) 1.1 (23:59) 4.6 5 (15:50) 2.5 (15:50) 8.4 6.2 0.8 1.2 0.2
16-02-2018 12.3 (13:30) 4.4 (23:40) 8.4 6.11 (13:20) 2.5 (00:40) 6 0 0 0.2 5.8
15-02-2018 11.2 (12:20) 4.8 (00:00) 8 5.28 (17:30) 3.06 (17:00) 0.4 0 0 0 0.4
14-02-2018 10.7 (14:50) 2.4 (00:00) 6.5 5 (18:20) 3.06 (17:50) 0.8 0 0.8 0 0
13-02-2018 5.8 (10:00) -3.4 (-00:0) 1.2 10.28 (09:50) 3.89 (09:10) 7 0 1.6 1.4 4
12-02-2018 2.8 (13:30) -3.2 (-00:0) -0.2 5 (02:50) 3.06 (02:50) 4.2 2.4 0.4 1.4 0
11-02-2018 5.5 (10:50) 1 (00:00) 3.3 7.22 (22:30) 3.33 (22:30) 15.8 2 0.4 7.8 5.6
10-02-2018 4 (14:30) 0.3 (00:00) 2.2 4.72 (00:50) 2.5 (00:40) 4.4 0.8 0.2 0 3.4
09-02-2018 3.4 (14:30) -3 (-00:0) 0.2 6.39 (14:10) 3.61 (16:30) 20 2.8 8.6 6.8 1.8
08-02-2018 4.3 (14:30) -3.2 (-00:0) 0.6 3.33 (20:20) 2.22 (20:40) 3 0.2 0.2 0.4 2.2
07-02-2018 1 (13:40) -1.5 (-00:0) -0.3 8.33 (00:10) 3.89 (13:10) 15.4 4.8 3.2 3.4 4
06-02-2018 0.2 (13:10) -2.4 (-00:0) -1.1 -- (--) -- (--) 29.4 0.2 0.2 13 16
05-02-2018 0.4 (09:30) -1.1 (-00:0) -0.4 -- (--) -- (--) 22.8 21.2 0.6 1 0
04-02-2018 1.9 (16:30) -0.3 (00:00) 0.8 5 (00:30) 2.5 (00:30) 40.2 15 8.8 2 14.4
03-02-2018 3.8 (15:10) 0.1 (00:00) 1.9 7.22 (15:10) 3.89 (15:30) 30.2 0.8 3 6.4 20
02-02-2018 1.3 (14:40) -0.4 (00:00) 0.4 5.28 (03:50) 2.78 (01:40) 37.8 11.4 9.2 10 7.2
01-02-2018 5.6 (03:30) 0.1 (00:00) 2.8 9.72 (16:30) 4.44 (13:50) 28 5.8 5.2 6.6 10.4
31-01-2018 12 (13:50) -0.2 (00:00) 5.9 4.72 (12:30) 2.78 (13:10) 0.2 0 0 0 0.2
30-01-2018 11.1 (13:50) 0.1 (00:00) 5.6 3.89 (23:10) 2.5 (02:00) 0 0 0 0 0
29-01-2018 11.1 (13:50) 0.7 (00:00) 5.9 4.72 (18:40) 3.06 (15:40) 0 0 0 0 0
28-01-2018 8 (14:00) -0.9 (-00:0) 3.6 4.44 (17:40) 2.5 (17:20) 0.2 0.2 0 0 0
27-01-2018 5.7 (15:00) 1.8 (00:00) 3.7 5.56 (00:40) 3.06 (00:50) 7.6 3.4 1.4 1.2 1.6
26-01-2018 3.5 (17:30) 0.3 (00:00) 1.9 6.67 (17:20) 3.61 (17:20) 39.2 6.8 12.4 10.6 9.4
25-01-2018 11 (00:40) 2.1 (00:00) 6.5 8.61 (01:10) 3.61 (01:10) 12.8 0 5.6 6.8 0.4
24-01-2018 11.9 (14:00) 1.4 (00:00) 6.6 8.61 (19:20) 4.17 (19:20) 0 0 0 0 0
23-01-2018 11.9 (14:00) 3.1 (00:00) 7.5 3.61 (02:30) 2.5 (02:30) 0 0 0 0 0
22-01-2018 14.4 (15:30) 2.5 (00:00) 8.4 4.44 (16:30) 2.5 (03:00) 0 0 0 0 0

Gráficas

Temp. máximas Temp. mínimas Temp. medias Precipitaciones Rachas de viento máximas Velocidades máximas media en intervalos de 10 minutos

Datos horarios

Fecha y hora oficial Temperatura (ºC) Velocidad del viento (km/h) Dirección del viento Racha (km/h) Dirección de racha Precipitación (mm) Presión (hPa) Tendencia (hPa) Humedad (%)
2018-02-20 23:00:00 4.9 6 Norte 12 Noroeste 1 -- -- 100
2018-02-20 22:00:00 5 8 Norte 16 Norte 1 -- -- 100
2018-02-20 21:00:00 5.1 9 Norte 16 Noroeste 1 -- -- 100
2018-02-20 20:00:00 4.8 8 Noroeste 16 Norte 1 -- -- 100
2018-02-20 19:00:00 5 9 Norte 15 Noroeste 0.4 -- -- 100
2018-02-20 18:00:00 5.2 7 Norte 15 Norte 0.4 -- -- 100
2018-02-20 17:00:00 5.2 8 Norte 19 Norte 0.4 -- -- 100
2018-02-20 16:00:00 4.9 10 Norte 15 Norte 0.8 -- -- 100
2018-02-20 15:00:00 5.3 8 Norte 16 Norte 0 -- -- 96
2018-02-20 14:00:00 5.7 9 Noroeste 20 Noroeste 0 -- -- 91
2018-02-20 13:00:00 5.5 5 Norte 18 Noroeste 0 -- -- 97
2018-02-20 12:00:00 4.3 9 Norte 14 Norte 0.6 -- -- 100
2018-02-20 11:00:00 4.2 8 Norte 14 Norte 0.4 -- -- 100
2018-02-20 10:00:00 3.8 8 Norte 15 Norte 1 -- -- 100
2018-02-20 09:00:00 3.3 2 Norte 3 Norte 0.4 -- -- 100
2018-02-20 08:00:00 3.3 0 Calma 5 Noroeste 1 -- -- 100
2018-02-20 07:00:00 3.4 2 Noroeste 8 Noroeste 0.2 -- -- 100
2018-02-20 06:00:00 4 2 Norte 21 Noroeste 0.6 -- -- 100
2018-02-20 05:00:00 4.2 7 Noroeste 15 Norte 0.8 -- -- 100
2018-02-20 04:00:00 4.4 7 Norte 17 Norte 1.2 -- -- 100
2018-02-20 03:00:00 4.1 5 Noroeste 9 Norte 0.8 -- -- 100
2018-02-20 02:00:00 4.3 4 Noroeste 12 Norte 1 -- -- 100
2018-02-20 01:00:00 4 7 Noroeste 13 Noroeste 1 -- -- 100
2018-02-20 00:00:00 4 3 Noroeste 10 Noroeste 0.8 -- -- 100
2018-02-19 23:00:00 4.1 0 Calma 11 Norte 1 -- -- 100
2018-02-19 22:00:00 4.6 6 Norte 15 Noroeste 0.6 -- -- 100
2018-02-19 21:00:00 4 0 Calma 3 Noroeste 0.4 -- -- 100
2018-02-19 20:00:00 4.1 0 Calma 5 Sudeste 0.2 -- -- 100
2018-02-19 19:00:00 4.4 0 Calma 7 Sudeste 0.6 -- -- 100
2018-02-19 18:00:00 4.5 0 Calma 5 Sudeste 0.6 -- -- 100
2018-02-19 17:00:00 4.6 0 Calma 4 Este 0.4 -- -- 100
2018-02-19 16:00:00 4.6 4 Sudeste 7 Sudeste 0.6 -- -- 100
2018-02-19 15:00:00 4.5 2 Sudeste 8 Sudeste 0.4 -- -- 100
2018-02-19 14:00:00 4.3 4 Sudeste 6 Sudeste 0.2 -- -- 100
2018-02-19 13:00:00 4.2 4 Sudeste 7 Este 0.4 -- -- 100
2018-02-19 12:00:00 4.1 3 Sudeste 6 Sudeste 0.2 -- -- 100
2018-02-19 11:00:00 3.8 4 Sudeste 6 Sudeste 0.2 -- -- 100
2018-02-19 10:00:00 3.6 3 Sudeste 5 Sudeste 0.8 -- -- 100
2018-02-19 09:00:00 3.4 3 Sudeste 5 Sudeste 0.8 -- -- 100
2018-02-19 08:00:00 3.4 0 Calma 3 Sudeste 0.8 -- -- 100
2018-02-19 07:00:00 3.3 0 Calma 3 Noroeste 0.6 -- -- 100
2018-02-19 06:00:00 3.3 0 Calma 3 Sudeste 0.6 -- -- 100
2018-02-19 05:00:00 3.3 3 Sudeste 5 Sur 0.8 -- -- 100
2018-02-19 04:00:00 3.3 0 Calma 4 Sur 0.8 -- -- 100
2018-02-19 03:00:00 3.4 0 Calma 6 Sudeste 0.8 -- -- 100
2018-02-19 02:00:00 3.4 0 Calma 6 Sudeste 0.6 -- -- 100
2018-02-19 01:00:00 3.4 2 Sudeste 4 Sudeste 0.4 -- -- 100
2018-02-19 00:00:00 3.6 0 Calma 6 Sudeste 0.2 -- -- 100
2018-02-18 23:00:00 3.7 3 Sudeste 5 Sudeste 0.4 -- -- 99
2018-02-18 22:00:00 3.9 0 Calma 4 Noroeste 1 -- -- 99
2018-02-18 21:00:00 4.1 0 Calma 9 Sudeste 1.2 -- -- 98
2018-02-18 20:00:00 4.5 4 Sudeste 7 Sudeste 1 -- -- 97
2018-02-18 19:00:00 5.4 0 Calma 6 Norte 0.4 -- -- 93
2018-02-18 18:00:00 6.5 5 Norte 9 Norte 0 -- -- 84
2018-02-18 17:00:00 8 5 Norte 10 Noroeste 0 -- -- 75
2018-02-18 16:00:00 8.9 3 Norte 7 Norte 0 -- -- 75
2018-02-18 15:00:00 9.1 3 Norte 5 Noroeste 0 -- -- 74
2018-02-18 14:00:00 8.5 2 Noroeste 7 Sudeste 0 -- -- 76
2018-02-18 13:00:00 6.8 5 Sudeste 8 Sur 0 -- -- 77
2018-02-18 12:00:00 5.2 4 Sur 8 Sur 0 -- -- 80
2018-02-18 11:00:00 3.8 4 Sudeste 8 Sudeste 0 -- -- 87
2018-02-18 10:00:00 2.2 4 Sudeste 10 Sudeste 0 -- -- 94
2018-02-18 09:00:00 1.2 0 Calma 8 Sudeste 0 -- -- 97
2018-02-18 08:00:00 0.8 4 Sudeste 8 Sudeste 0 -- -- 98
2018-02-18 07:00:00 0.3 2 Nordeste 8 Sudeste 0 -- -- 98
2018-02-18 06:00:00 -0.2 4 Sudeste 6 Sudeste 0 -- -- 98
2018-02-18 05:00:00 0 0 Calma 9 Sudeste 0 -- -- 97
2018-02-18 04:00:00 -0.1 6 Sudeste 10 Sudeste 0 -- -- 98
2018-02-18 03:00:00 0.2 4 Sudeste 7 Sudeste 0 -- -- 98
2018-02-18 02:00:00 0.5 5 Sudeste 8 Sudeste 0 -- -- 98
2018-02-18 01:00:00 1.1 5 Sudeste 8 Sudeste 0 -- -- 99
2018-02-18 00:00:00 1.1 3 Sudeste 7 Sudeste 0 -- -- 99
2018-02-17 23:00:00 1.5 4 Sudeste 8 Sudeste 0 -- -- 99
2018-02-17 22:00:00 1.7 2 Sudeste 8 Sudeste 0 -- -- 98
2018-02-17 21:00:00 1.7 2 Sudeste 5 Sudeste 0 -- -- 98
2018-02-17 20:00:00 2.6 0 Calma 5 Sudeste 0 -- -- 95
2018-02-17 19:00:00 3.8 0 Calma 8 Norte 0.2 -- -- 94
2018-02-17 18:00:00 4.7 3 Norte 9 Norte 0 -- -- 94
2018-02-17 17:00:00 4.9 4 Norte 14 Norte 0.6 -- -- 93
2018-02-17 16:00:00 5.6 8 Norte 18 Norte 0 -- -- 83
2018-02-17 15:00:00 8 4 Sur 8 Sudeste 0 -- -- 67
2018-02-17 14:00:00 7.5 3 Sudeste 8 Sur 0 -- -- 72
2018-02-17 13:00:00 4.6 6 Norte 14 Noroeste 0.6 -- -- 94
2018-02-17 12:00:00 4.5 6 Norte 11 Norte 0.4 -- -- 96
2018-02-17 11:00:00 4.3 5 Noroeste 9 Norte 0.2 -- -- 99
2018-02-17 10:00:00 3.5 3 Sudeste 8 Sudeste 0 -- -- 100
2018-02-17 09:00:00 2.8 2 Sudeste 6 Sudeste 0 -- -- 100
2018-02-17 08:00:00 2.8 3 Sudeste 5 Sudeste 0 -- -- 100
2018-02-17 07:00:00 2.9 0 Calma 3 Noroeste 0.2 -- -- 100
2018-02-17 06:00:00 3.1 0 Calma 2 Sudoeste 1.4 -- -- 100
2018-02-17 05:00:00 3.2 0 Calma 4 Sur 0.8 -- -- 100
2018-02-17 04:00:00 3.6 0 Calma 4 Noroeste 0.8 -- -- 100
2018-02-17 03:00:00 3.8 2 Noroeste 13 Norte 0.6 -- -- 100
2018-02-17 02:00:00 3.8 2 Norte 4 Norte 1 -- -- 99
2018-02-17 01:00:00 4.1 2 Sudeste 6 Sudeste 1.6 -- -- 99
2018-02-17 00:00:00 4.5 4 Sudeste 10 Sudeste 3 -- -- 99
2018-02-16 23:00:00 4.6 4 Sudeste 9 Sudeste 2.8 -- -- 97
2018-02-16 22:00:00 5.2 3 Sudeste 10 Este 0 -- -- 94
2018-02-16 21:00:00 5.3 6 Sudeste 13 Sudeste 0 -- -- 92
2018-02-16 20:00:00 5.1 6 Sudeste 13 Sur 0 -- -- 93
2018-02-16 19:00:00 6 2 Sudeste 11 Sudeste 0 -- -- 90
2018-02-16 18:00:00 6.9 8 Sudeste 12 Sudeste 0.2 -- -- 90
2018-02-16 17:00:00 9.1 5 Sudeste 12 Sudeste 0 -- -- 77
2018-02-16 16:00:00 11.7 6 Este 21 Sudeste 0 -- -- 70
2018-02-16 15:00:00 10.8 6 Sudeste 22 Sudeste 0 -- -- 74
2018-02-16 14:00:00 11.3 4 Este 22 Sudeste 0 -- -- 72
2018-02-16 13:00:00 11.9 4 Sudeste 22 Sudeste 0 -- -- 71
2018-02-16 12:00:00 8.9 4 Sudeste 9 Sudeste 0 -- -- 83
2018-02-16 11:00:00 7.4 0 Calma 12 Sudeste 0 -- -- 85
2018-02-16 10:00:00 6 8 Sudeste 15 Sudeste 0 -- -- 88
2018-02-16 09:00:00 4.6 4 Sudeste 12 Sudeste 0 -- -- 92
2018-02-16 08:00:00 4.6 3 Sudeste 12 Sudeste 0 -- -- 91
2018-02-16 07:00:00 4.6 3 Sur 14 Sudeste 0 -- -- 92
2018-02-16 06:00:00 5.1 8 Sudeste 13 Sudeste 0 -- -- 90
2018-02-16 05:00:00 4.8 7 Sudeste 13 Sudeste 0 -- -- 92
2018-02-16 04:00:00 5.4 5 Sudeste 14 Sur 0 -- -- 90
2018-02-16 03:00:00 4.7 6 Sudeste 13 Sudeste 0 -- -- 93
2018-02-16 02:00:00 5.1 5 Sudeste 12 Sudeste 0 -- -- 92
2018-02-16 01:00:00 5.5 7 Sudeste 14 Sudeste 0 -- -- 93
2018-02-16 00:00:00 5 2 Sudeste 14 Sudeste 0 -- -- 92
2018-02-15 23:00:00 5.2 8 Sudeste 14 Sudeste 0 -- -- 93
2018-02-15 22:00:00 5 4 Sudeste 15 Sudeste 0 -- -- 94
2018-02-15 21:00:00 5.9 10 Sudeste 15 Sudeste 0.2 -- -- 96
2018-02-15 20:00:00 5.5 7 Sudeste 12 Sudeste 0.2 -- -- 93
2018-02-15 19:00:00 6.4 4 Sudeste 14 Sudeste 0 -- -- 85
2018-02-15 18:00:00 7.3 7 Sudeste 19 Sudeste 0 -- -- 82
2018-02-15 17:00:00 8.4 11 Sudeste 16 Sudeste 0 -- -- 79
2018-02-15 16:00:00 8.9 5 Este 12 Sudeste 0 -- -- 76
2018-02-15 15:00:00 9.6 5 Sudeste 15 Sudeste 0 -- -- 75
2018-02-15 14:00:00 9 7 Sudeste 14 Sudeste 0 -- -- 76
2018-02-15 13:00:00 9.9 5 Nordeste 12 Nordeste 0 -- -- 71
2018-02-15 12:00:00 10.4 7 Sudeste 14 Sudeste 0 -- -- 71
2018-02-15 11:00:00 8.6 5 Este 13 Este 0 -- -- 75
2018-02-15 10:00:00 6.8 3 Sudeste 14 Sudeste 0 -- -- 83
2018-02-15 09:00:00 6.3 8 Sudeste 16 Este 0 -- -- 85
2018-02-15 08:00:00 6.5 8 Sudeste 17 Sudeste 0 -- -- 83
2018-02-15 07:00:00 6.1 7 Sudeste 16 Sudeste 0 -- -- 84
2018-02-15 06:00:00 6.4 8 Sudeste 16 Sudeste 0 -- -- 84
2018-02-15 05:00:00 6.4 6 Sudeste 16 Sudeste 0 -- -- 84
2018-02-15 04:00:00 6.5 5 Sudeste 18 Sudeste 0 -- -- 84
2018-02-15 03:00:00 5 3 Sudeste 11 Este 0 -- -- 88
2018-02-15 02:00:00 6 3 Sudeste 17 Sur 0 -- -- 84
2018-02-15 01:00:00 5.9 7 Sudeste 17 Este 0 -- -- 85
2018-02-15 00:00:00 5.6 5 Sudeste 17 Sudeste 0 -- -- 85
2018-02-14 23:00:00 5.4 6 Sudeste 13 Sudeste 0 -- -- 85
2018-02-14 22:00:00 6 9 Sudeste 14 Sur 0 -- -- 83
2018-02-14 21:00:00 6.4 7 Sudeste 15 Sudeste 0 -- -- 81
2018-02-14 20:00:00 7.1 8 Sudeste 17 Este 0 -- -- 78
2018-02-14 19:00:00 7.1 9 Sudeste 18 Este 0 -- -- 78
2018-02-14 18:00:00 7.9 9 Este 18 Este 0 -- -- 76
2018-02-14 17:00:00 9.6 10 Este 18 Sudeste 0 -- -- 69
2018-02-14 16:00:00 8.2 9 Sudeste 14 Sudeste 0 -- -- 76
2018-02-14 15:00:00 10.5 6 Sudeste 14 Sudeste 0 -- -- 69
2018-02-14 14:00:00 7.2 6 Sudeste 14 Sudeste 0 -- -- 80
2018-02-14 13:00:00 6.2 4 Sudeste 13 Sudeste 0 -- -- 86
2018-02-14 12:00:00 5.7 10 Sudeste 15 Sudeste 0.2 -- -- 90
2018-02-14 11:00:00 5.5 8 Sudeste 15 Sudeste 0.4 -- -- 91
2018-02-14 10:00:00 5.7 8 Sudeste 17 Este 0.2 -- -- 88
2018-02-14 09:00:00 4.9 10 Sudeste 16 Sudeste 0 -- -- 87
2018-02-14 08:00:00 3.8 5 Sudeste 14 Sudeste 0 -- -- 91
2018-02-14 07:00:00 3.6 4 Sudeste 14 Sudeste 0 -- -- 94
2018-02-14 06:00:00 3.8 8 Sudeste 13 Sudeste 0 -- -- 93
2018-02-14 05:00:00 3.6 9 Sudeste 13 Sudeste 0 -- -- 92
2018-02-14 04:00:00 3.5 5 Sudeste 14 Este 0 -- -- 92
2018-02-14 03:00:00 3.3 4 Sudeste 13 Sudeste 0 -- -- 94
2018-02-14 02:00:00 2.6 5 Sudeste 10 Este 0 -- -- 99
2018-02-14 01:00:00 2.4 4 Sudeste 8 Sudeste 0 -- -- 99
2018-02-14 00:00:00 2.5 0 Calma 13 Sudeste 0 -- -- 98
2018-02-13 23:00:00 2.7 7 Sudeste 14 Sudeste 0.6 -- -- 99
2018-02-13 22:00:00 2.6 8 Sudeste 12 Sudeste 0.8 -- -- 99
2018-02-13 21:00:00 2.4 4 Sudeste 8 Sudeste 1.2 -- -- 98
2018-02-13 20:00:00 2.4 5 Sudeste 9 Sudeste 1 -- -- 99
2018-02-13 19:00:00 2.6 3 Sudeste 6 Este 0.4 -- -- 97
2018-02-13 18:00:00 3.3 4 Sudeste 9 Sudeste 0 -- -- 94
2018-02-13 17:00:00 3.9 5 Sudeste 8 Sudeste 0 -- -- 92
2018-02-13 16:00:00 4 2 Sudeste 6 Este 0 -- -- 92
2018-02-13 15:00:00 4.1 4 Sudeste 6 Sudeste 0.2 -- -- 92
2018-02-13 14:00:00 3.5 4 Sudeste 11 Sudeste 0.4 -- -- 93
2018-02-13 13:00:00 3.6 5 Sudeste 9 Sudeste 0.8 -- -- 95
2018-02-13 12:00:00 3.3 4 Sudeste 9 Este 1 -- -- 94
2018-02-13 11:00:00 4 3 Sur 27 Norte 0.6 -- -- 88
2018-02-13 10:00:00 5.8 9 Norte 37 Norte 0 -- -- 67
2018-02-13 09:00:00 3.7 9 Sudeste 28 Sudeste 0 -- -- 78
2018-02-13 08:00:00 2.9 6 Este 15 Este 0 -- -- 80
2018-02-13 07:00:00 1.9 4 Este 12 Nordeste 0 -- -- 84
2018-02-13 06:00:00 1.3 3 Sudeste 19 Sudeste 0 -- -- 80
2018-02-13 05:00:00 -0.5 3 Sudeste 11 Sudeste 0 -- -- 84
2018-02-13 04:00:00 -2 6 Sudeste 13 Sudeste 0 -- -- 81
2018-02-13 03:00:00 -3 2 Este 5 Norte 0 -- -- 87
2018-02-13 02:00:00 -2.7 5 Sudeste 10 Sudeste 0 -- -- 82
2018-02-13 01:00:00 -3 3 Sudeste 13 Sudeste 0 -- -- 88
2018-02-13 00:00:00 -3.2 2 Sudeste 9 Sudeste 0 -- -- 91
2018-02-12 23:00:00 -2.3 2 Nordeste 13 Este 0 -- -- 88
2018-02-12 22:00:00 -2.1 5 Este 12 Sudeste 0 -- -- 86
2018-02-12 21:00:00 -1.8 4 Este 12 Sudeste 0 -- -- 85
2018-02-12 20:00:00 -1.4 6 Sudeste 10 Este 0 -- -- 85
2018-02-12 19:00:00 -0.8 5 Sudeste 9 Sudeste 0 -- -- 90
2018-02-12 18:00:00 0.9 2 Este 6 Sudeste 0 -- -- 85
2018-02-12 17:00:00 1.9 3 Sudeste 6 Sur 0 -- -- 86
2018-02-12 16:00:00 1.3 4 Nordeste 13 Noroeste 0.6 -- -- 93
2018-02-12 15:00:00 1.5 2 Noroeste 13 Norte 0.8 -- -- 94
2018-02-12 14:00:00 1.5 7 Norte 17 Noroeste 0 -- -- 87
2018-02-12 13:00:00 2.6 5 Noroeste 9 Norte 0 -- -- 84
2018-02-12 12:00:00 1.4 2 Norte 8 Noroeste 0 -- -- 96
2018-02-12 11:00:00 0.4 3 Noroeste 10 Norte 0 -- -- 99
2018-02-12 10:00:00 0 3 Noroeste 6 Sudeste 0 -- -- 100
2018-02-12 09:00:00 -0.7 2 Sudeste 6 Sudeste 0 -- -- 100
2018-02-12 08:00:00 -0.7 0 Calma 4 Noroeste 0 -- -- 100
2018-02-12 07:00:00 -0.1 2 Norte 13 Norte 0.4 -- -- 100
2018-02-12 06:00:00 0.1 9 Norte 14 Norte 0.2 -- -- 100
2018-02-12 05:00:00 0.2 0 Calma 18 Noroeste 1 -- -- 100
2018-02-12 04:00:00 0.4 10 Norte 17 Noroeste 0.8 -- -- 99
2018-02-12 03:00:00 0.5 10 Norte 18 Noroeste 0.4 -- -- 100
2018-02-12 02:00:00 0.9 0 Calma 4 Norte 0 -- -- 100
2018-02-12 01:00:00 1 0 Calma 5 Este 0 -- -- 100
2018-02-12 00:00:00 1 0 Calma 13 Norte 1 -- -- 99
2018-02-11 23:00:00 1.6 4 Norte 26 Norte 0.4 -- -- 95
2018-02-11 22:00:00 2.2 9 Norte 18 Noroeste 0.8 -- -- 98
2018-02-11 21:00:00 2.5 8 Norte 19 Norte 1.2 -- -- 99
2018-02-11 20:00:00 2.6 2 Norte 18 Norte 1 -- -- 98
2018-02-11 19:00:00 3 7 Norte 14 Norte 1.2 -- -- 100
2018-02-11 18:00:00 3 0 Calma 4 Sudeste 2.4 -- -- 98
2018-02-11 17:00:00 4.1 0 Calma 18 Noroeste 1.2 -- -- 97
2018-02-11 16:00:00 4.6 8 Norte 17 Noroeste 1.2 -- -- 98
2018-02-11 15:00:00 4.6 3 Norte 8 Noroeste 1.8 -- -- 98
2018-02-11 14:00:00 4.9 6 Sudeste 10 Sudeste 0.6 -- -- 96
2018-02-11 13:00:00 4.6 6 Sudeste 15 Sudeste 0.6 -- -- 96
2018-02-11 12:00:00 4.7 3 Sudeste 11 Sudeste 0.4 -- -- 93
2018-02-11 11:00:00 5.5 6 Sudeste 15 Sudeste 0 -- -- 88
2018-02-11 10:00:00 4 9 Sudeste 15 Sudeste 0 -- -- 95
2018-02-11 09:00:00 3.4 7 Sudeste 14 Este 0 -- -- 98
2018-02-11 08:00:00 3.1 8 Sudeste 13 Sudeste 0 -- -- 100
2018-02-11 07:00:00 3.1 5 Sudeste 12 Sudeste 0 -- -- 100
2018-02-11 06:00:00 2.9 5 Sudeste 11 Sudeste 0 -- -- 100
2018-02-11 05:00:00 2.6 4 Sudeste 9 Sudeste 0 -- -- 100
2018-02-11 04:00:00 3.3 4 Sudeste 13 Sudeste 0 -- -- 100
2018-02-11 03:00:00 2.9 7 Sudeste 12 Sudeste 0.2 -- -- 100
2018-02-11 02:00:00 2.7 5 Sudeste 10 Sudeste 1 -- -- 100
2018-02-11 01:00:00 2.8 5 Sudeste 12 Sudeste 0.8 -- -- 100
2018-02-11 00:00:00 2.4 4 Sudeste 9 Sudeste 1.2 -- -- 100
2018-02-10 23:00:00 2.2 5 Sudeste 11 Sudeste 1.4 -- -- 100
2018-02-10 22:00:00 2.2 6 Sudeste 11 Sudeste 0.4 -- -- 100
2018-02-10 21:00:00 1.8 4 Sudeste 8 Sudeste 0.2 -- -- 100
2018-02-10 20:00:00 1.8 4 Sudeste 10 Sudeste 0 -- -- 99
2018-02-10 19:00:00 1.9 5 Sudeste 8 Sudeste 0.2 -- -- 98
2018-02-10 18:00:00 2.4 4 Sudeste 8 Sudeste 0 -- -- 95
2018-02-10 17:00:00 3 4 Sudeste 6 Sudeste 0 -- -- 91
2018-02-10 16:00:00 3.4 3 Sudeste 6 Sudeste 0 -- -- 89
2018-02-10 15:00:00 3.9 2 Este 6 Sudeste 0 -- -- 86
2018-02-10 14:00:00 3.7 4 Sudeste 6 Sudeste 0 -- -- 85
2018-02-10 13:00:00 3.6 3 Sudeste 7 Noroeste 0 -- -- 87
2018-02-10 12:00:00 2.8 5 Norte 9 Noroeste 0.2 -- -- 92
2018-02-10 11:00:00 1.7 4 Sudeste 6 Sudeste 0 -- -- 99
2018-02-10 10:00:00 1 2 Sudeste 4 Sudeste 0 -- -- 100
2018-02-10 09:00:00 0.5 2 Sudeste 5 Sur 0 -- -- 100
2018-02-10 08:00:00 0.4 0 Calma 6 Sudeste 0 -- -- 100
2018-02-10 07:00:00 0.4 2 Sudeste 3 Sudeste 0 -- -- 100
2018-02-10 06:00:00 0.4 2 Noroeste 3 Noroeste 0 -- -- 100
2018-02-10 05:00:00 0.4 0 Calma 6 Norte 0 -- -- 100
2018-02-10 04:00:00 0.4 5 Norte 12 Noroeste 0 -- -- 100
2018-02-10 03:00:00 0.4 5 Noroeste 10 Norte 0.6 -- -- 100
2018-02-10 02:00:00 0.6 4 Noroeste 9 Norte 0 -- -- 100
2018-02-10 01:00:00 0.8 4 Norte 17 Norte 0.2 -- -- 100
2018-02-10 00:00:00 0.6 4 Noroeste 7 Noroeste 0 -- -- 100
2018-02-09 23:00:00 0.5 2 Norte 4 Noroeste 0 -- -- 100
2018-02-09 22:00:00 0.5 0 Calma 8 Noroeste 0 -- -- 100
2018-02-09 21:00:00 0.9 5 Norte 17 Norte 0.4 -- -- 100
2018-02-09 20:00:00 0.8 8 Norte 13 Norte 0.6 -- -- 99
2018-02-09 19:00:00 1.2 9 Norte 17 Norte 0.8 -- -- 97
2018-02-09 18:00:00 1.9 10 Norte 21 Noroeste 0.4 -- -- 94
2018-02-09 17:00:00 2.3 10 Norte 20 Noroeste 1.2 -- -- 97
2018-02-09 16:00:00 2.8 11 Norte 22 Norte 1.4 -- -- 96
2018-02-09 15:00:00 3.2 9 Norte 23 Norte 1.4 -- -- 97
2018-02-09 14:00:00 3.3 10 Norte 19 Norte 1.2 -- -- 98
2018-02-09 13:00:00 2.9 4 Noroeste 13 Norte 1.2 -- -- 99
2018-02-09 12:00:00 2.7 2 Norte 10 Noroeste 0.6 -- -- 100
2018-02-09 11:00:00 3.1 4 Norte 22 Norte 1.6 -- -- 100
2018-02-09 10:00:00 1.3 0 Calma 8 Oeste 1.4 -- -- 100
2018-02-09 09:00:00 1.1 2 Sudeste 10 Sudeste 2.8 -- -- 100
2018-02-09 08:00:00 0.7 0 Calma 5 Sur 0.8 -- -- 100
2018-02-09 07:00:00 0.8 0 Calma 6 Sudeste 1.4 -- -- 100
2018-02-09 06:00:00 0.7 2 Sudeste 5 Sudeste 0.8 -- -- 100
2018-02-09 05:00:00 0.6 2 Sudeste 10 Sudeste 1 -- -- 99
2018-02-09 04:00:00 0.3 4 Sudeste 9 Sudeste 1 -- -- 98
2018-02-09 03:00:00 -0.1 2 Sudeste 8 Sudeste 0 -- -- 95
2018-02-09 02:00:00 -0.4 2 Norte 11 Sudeste 0 -- -- 92
2018-02-09 01:00:00 -1.2 2 Noroeste 13 Sudeste 0 -- -- 91
2018-02-09 00:00:00 -3 3 Sudeste 10 Sudeste 0 -- -- 94
2018-02-08 23:00:00 -3.2 0 Calma 12 Sudeste 0 -- -- 92
2018-02-08 22:00:00 -2.9 4 Sudeste 9 Sudeste 0.2 -- -- 91
2018-02-08 21:00:00 -1.8 4 Sudeste 12 Sudeste 1.8 -- -- 88
2018-02-08 20:00:00 -1.5 6 Sudeste 11 Sudeste 0.2 -- -- 88
2018-02-08 19:00:00 -0.9 4 Sudeste 9 Sudeste 0 -- -- 87
2018-02-08 18:00:00 -0.7 5 Sudeste 8 Sudeste 0 -- -- 89
2018-02-08 17:00:00 0.3 3 Sudeste 8 Sudeste 0 -- -- 88
2018-02-08 16:00:00 2 3 Sudeste 6 Sudeste 0 -- -- 83
2018-02-08 15:00:00 3.9 3 Sur 8 Sudeste 0 -- -- 70
2018-02-08 14:00:00 2.2 4 Norte 9 Noroeste 0 -- -- 80
2018-02-08 13:00:00 2.5 4 Sudeste 8 Sudeste 0.4 -- -- 80
2018-02-08 12:00:00 0.3 3 Sudeste 4 Sudeste 0 -- -- 88
2018-02-08 11:00:00 -0.6 3 Sudeste 6 Sudeste 0.2 -- -- 93
2018-02-08 10:00:00 -1.5 3 Sudeste 5 Sudeste 0 -- -- 97
2018-02-08 09:00:00 -2 2 Sudeste 5 Sudeste 0 -- -- 98
2018-02-08 08:00:00 -2.4 -- -- 5 Norte 0 -- -- 99
2018-02-08 07:00:00 -2.8 -- -- -- -- 0 -- -- 98
2018-02-08 06:00:00 -2.2 -- -- -- -- 0 -- -- 99
2018-02-08 05:00:00 -2.2 -- -- -- -- 0 -- -- 99
2018-02-08 04:00:00 -2.2 -- -- -- -- 0.2 -- -- 99
2018-02-08 03:00:00 -2.4 -- -- -- -- 0 -- -- 98
2018-02-08 02:00:00 -1.9 -- -- -- -- 0 -- -- 96
2018-02-08 01:00:00 -1.4 -- -- -- -- 0 -- -- 98
2018-02-08 00:00:00 -1.3 -- -- -- -- 0.6 -- -- 99
2018-02-07 23:00:00 -1.4 -- -- -- -- 0 -- -- 98
2018-02-07 22:00:00 -1.3 -- -- -- -- 0 -- -- 98
2018-02-07 21:00:00 -1.2 -- -- -- -- 1.2 -- -- 98
2018-02-07 20:00:00 -0.7 -- -- -- -- 1.6 -- -- 99
2018-02-07 19:00:00 -0.6 -- -- -- -- 0.6 -- -- 98
2018-02-07 18:00:00 -0.2 -- -- -- -- 1.4 -- -- 97
2018-02-07 17:00:00 0.4 -- -- -- -- 0 -- -- 88
2018-02-07 16:00:00 0.2 -- -- -- -- 0 -- -- 86
2018-02-07 15:00:00 0.1 -- -- -- -- 1.2 -- -- 95
2018-02-07 14:00:00 0.6 -- -- -- -- 0.2 -- -- 91
2018-02-07 13:00:00 0.1 -- -- -- -- 0.6 -- -- 95
2018-02-07 12:00:00 0.3 -- -- -- -- 1.8 -- -- 93
2018-02-07 11:00:00 -0.2 -- -- -- -- 0.6 -- -- 94
2018-02-07 10:00:00 -0.6 -- -- -- -- 0.4 -- -- 96
2018-02-07 09:00:00 -0.9 -- -- -- -- 0.2 -- -- 95
2018-02-07 08:00:00 -0.7 -- -- -- -- 0.2 -- -- 93
2018-02-07 07:00:00 -0.4 -- -- -- -- 0 -- -- 91
2018-02-07 06:00:00 -0.2 -- -- -- -- 0 -- -- 91
2018-02-07 05:00:00 -0.2 -- -- -- -- 0 -- -- 91
2018-02-07 04:00:00 -0.2 -- -- -- -- 0.8 -- -- 95
2018-02-07 03:00:00 -0.3 -- -- -- -- 1.4 -- -- 97
2018-02-07 02:00:00 -0.3 -- -- -- -- 2.2 -- -- 100
2018-02-07 01:00:00 -- -- -- -- -- -- -- -- --
2018-02-07 00:00:00 -- -- -- -- -- -- -- -- --
2018-02-06 23:00:00 -- -- -- -- -- -- -- -- --
2018-02-06 22:00:00 -- -- -- -- -- -- -- -- --
2018-02-06 21:00:00 -- -- -- -- -- -- -- -- --
2018-02-06 20:00:00 -- -- -- -- -- -- -- -- --
2018-02-06 19:00:00 -- -- -- -- -- -- -- -- --
2018-02-06 18:00:00 -- -- -- -- -- -- -- -- --
2018-02-06 17:00:00 -- -- -- -- -- -- -- -- --
2018-02-06 16:00:00 -- -- -- -- -- -- -- -- --
2018-02-06 15:00:00 -- -- -- -- -- -- -- -- --
2018-02-06 14:00:00 -- -- -- -- -- -- -- -- --
2018-02-06 13:00:00 -- -- -- -- -- -- -- -- --
2018-02-06 12:00:00 -- -- -- -- -- -- -- -- --
2018-02-06 11:00:00 -- -- -- -- -- -- -- -- --
2018-02-06 10:00:00 -- -- -- -- -- -- -- -- --
2018-02-06 09:00:00 -- -- -- -- -- -- -- -- --
2018-02-06 08:00:00 -- -- -- -- -- -- -- -- --
2018-02-06 07:00:00 -- -- -- -- -- -- -- -- --
2018-02-06 06:00:00 -- -- -- -- -- -- -- -- --
2018-02-06 05:00:00 -- -- -- -- -- -- -- -- --
2018-02-06 04:00:00 -- -- -- -- -- -- -- -- --
2018-02-06 03:00:00 -- -- -- -- -- -- -- -- --
2018-02-06 02:00:00 -- -- -- -- -- -- -- -- --
2018-02-06 01:00:00 -- -- -- -- -- -- -- -- --
2018-02-06 00:00:00 -- -- -- -- -- -- -- -- --
2018-02-05 23:00:00 -- -- -- -- -- -- -- -- --
2018-02-05 22:00:00 -- -- -- -- -- -- -- -- --
2018-02-05 21:00:00 -- -- -- -- -- -- -- -- --
2018-02-05 20:00:00 -- -- -- -- -- -- -- -- --
2018-02-05 19:00:00 -- -- -- -- -- -- -- -- --
2018-02-05 18:00:00 -- -- -- -- -- -- -- -- --
2018-02-05 17:00:00 -- -- -- -- -- -- -- -- --
2018-02-05 16:00:00 -- -- -- -- -- -- -- -- --
2018-02-05 15:00:00 -- -- -- -- -- -- -- -- --
2018-02-05 14:00:00 -- -- -- -- -- -- -- -- --
2018-02-05 13:00:00 -- -- -- -- -- -- -- -- --
2018-02-05 12:00:00 -- -- -- -- -- -- -- -- --
2018-02-05 11:00:00 -- -- -- -- -- -- -- -- --
2018-02-05 10:00:00 -- -- -- -- -- -- -- -- --
2018-02-05 09:00:00 -- -- -- -- -- -- -- -- --
2018-02-05 08:00:00 -- -- -- -- -- -- -- -- --
2018-02-05 07:00:00 -0.4 -- -- -- -- 0.2 -- -- 100
2018-02-05 06:00:00 -0.3 -- -- -- -- 1.6 -- -- 100
2018-02-05 05:00:00 -0.2 -- -- -- -- 5 -- -- 100
2018-02-05 04:00:00 -0.3 -- -- -- -- 3.8 -- -- 100
2018-02-05 03:00:00 -0.3 -- -- -- -- 3.4 -- -- 100
2018-02-05 02:00:00 -0.3 -- -- -- -- 4.6 -- -- 100
2018-02-05 01:00:00 -0.2 -- -- -- -- 2.8 -- -- 100
2018-02-05 00:00:00 -0.1 -- -- 5 Norte 2 -- -- 100
2018-02-04 23:00:00 0 2 Norte 5 Noroeste 3.2 -- -- 100
2018-02-04 22:00:00 0.1 2 Norte 5 Noroeste 3.4 -- -- 100
2018-02-04 21:00:00 0.1 2 Norte 6 Norte 2.6 -- -- 100
2018-02-04 20:00:00 0.2 4 Norte 13 Noroeste 1.6 -- -- 100
2018-02-04 19:00:00 0.3 3 Norte 10 Noroeste 1.6 -- -- 100
2018-02-04 18:00:00 0.9 5 Norte 10 Noroeste 0.6 -- -- 98
2018-02-04 17:00:00 1.8 4 Norte 10 Noroeste 0.2 -- -- 95
2018-02-04 16:00:00 1.4 8 Norte 13 Noroeste 0 -- -- 96
2018-02-04 15:00:00 1.6 8 Norte 16 Norte 0.2 -- -- 96
2018-02-04 14:00:00 1.5 6 Norte 11 Norte 0 -- -- 95
2018-02-04 13:00:00 1.1 3 Norte 6 Noroeste 1 -- -- 98
2018-02-04 12:00:00 0.8 0 Calma 5 Norte 3.6 -- -- 99
2018-02-04 11:00:00 0.2 -- -- 3 Norte 0.4 -- -- 100
2018-02-04 10:00:00 -0.1 3 Norte 4 Norte 0.2 -- -- 100
2018-02-04 09:00:00 -0.3 0 Calma 8 Norte 0.2 -- -- 100
2018-02-04 08:00:00 -0.1 5 Norte 6 Norte 1.4 -- -- 100
2018-02-04 07:00:00 -0.1 3 Norte 6 Norte 3 -- -- 100
2018-02-04 06:00:00 0 3 Norte 6 Norte 2.4 -- -- 100
2018-02-04 05:00:00 0 4 Norte 8 Norte 0.2 -- -- 100
2018-02-04 04:00:00 0.1 3 Norte 10 Norte 2 -- -- 100
2018-02-04 03:00:00 0.2 5 Norte 11 Norte 3.4 -- -- 100
2018-02-04 02:00:00 0.2 8 Norte 12 Norte 3.4 -- -- 100
2018-02-04 01:00:00 0.1 5 Norte 18 Norte 3.6 -- -- 100
2018-02-04 00:00:00 0.1 5 Norte 10 Noroeste 3 -- -- 100
2018-02-03 23:00:00 0.2 6 Norte 10 Norte 3.4 -- -- 100
2018-02-03 22:00:00 0.2 2 Norte 4 Norte 4.4 -- -- 100
2018-02-03 21:00:00 0.3 0 Calma 15 Norte 3.2 -- -- 99
2018-02-03 20:00:00 1.2 8 Norte 21 Norte 3.6 -- -- 98
2018-02-03 19:00:00 2.3 9 Norte 22 Norte 2.4 -- -- 97
2018-02-03 18:00:00 2.9 9 Norte 19 Noroeste 0.8 -- -- 96
2018-02-03 17:00:00 3.5 9 Norte 18 Norte 0.6 -- -- 97
2018-02-03 16:00:00 3.6 10 Norte 26 Noroeste 0.8 -- -- 99
2018-02-03 15:00:00 3.7 10 Norte 20 Norte 1 -- -- 100
2018-02-03 14:00:00 2.8 0 Calma 4 Este 1.8 -- -- 97
2018-02-03 13:00:00 2.9 0 Calma 8 Sudeste 1.4 -- -- 98
2018-02-03 12:00:00 2.3 4 Sudeste 9 Sudeste 0.2 -- -- 100
2018-02-03 11:00:00 1.5 6 Sudeste 10 Sudeste 0.4 -- -- 100
2018-02-03 10:00:00 0.8 4 Sudeste 7 Sur 0.6 -- -- 100
2018-02-03 09:00:00 0.4 3 Sudeste 7 Sudeste 0.4 -- -- 100
2018-02-03 08:00:00 0.3 0 Calma 3 Sudeste 0.6 -- -- 100
2018-02-03 07:00:00 0.3 0 Calma 3 Noroeste 0.8 -- -- 100
2018-02-03 06:00:00 0.3 0 Calma 2 Noroeste 0 -- -- 100
2018-02-03 05:00:00 0.3 0 Calma 4 Noroeste 0.2 -- -- 100
2018-02-03 04:00:00 0.5 0 Calma 13 Norte 0 -- -- 99
2018-02-03 03:00:00 0.8 6 Norte 14 Noroeste 0.4 -- -- 99
2018-02-03 02:00:00 0.5 3 Noroeste 9 Noroeste 0 -- -- 100
2018-02-03 01:00:00 0.5 3 Norte 11 Norte 0.2 -- -- 100
2018-02-03 00:00:00 0.2 3 Noroeste 10 Noroeste 0.4 -- -- 100
2018-02-02 23:00:00 0.2 3 Norte 9 Noroeste 0.4 -- -- 100
2018-02-02 22:00:00 0.1 5 Noroeste 10 Norte 1.6 -- -- 100
2018-02-02 21:00:00 0.2 5 Norte 11 Norte 1 -- -- 100
2018-02-02 20:00:00 0.2 5 Norte 11 Norte 2 -- -- 100
2018-02-02 19:00:00 0.2 2 Noroeste 10 Norte 1.8 -- -- 100
2018-02-02 18:00:00 0.3 6 Norte 11 Noroeste 0.4 -- -- 99
2018-02-02 17:00:00 0.8 4 Norte 10 Norte 0.4 -- -- 97
2018-02-02 16:00:00 0.8 3 Norte 9 Norte 2 -- -- 97
2018-02-02 15:00:00 0.9 0 Calma 4 Noroeste 2.4 -- -- 95
2018-02-02 14:00:00 0.6 3 Noroeste 8 Norte 3.6 -- -- 98
2018-02-02 13:00:00 0.3 3 Norte 8 Norte 1.2 -- -- 100
2018-02-02 12:00:00 0.2 4 Norte 10 Norte 2.4 -- -- 100
2018-02-02 11:00:00 0.1 3 Norte 8 Noroeste 1.2 -- -- 99
2018-02-02 10:00:00 0 4 Norte 8 Norte 0.2 -- -- 100
2018-02-02 09:00:00 -0.3 4 Norte 10 Norte 0.4 -- -- 100
2018-02-02 08:00:00 -0.3 5 Norte 12 Norte 2.4 -- -- 100
2018-02-02 07:00:00 -0.3 5 Norte 12 Norte 2.6 -- -- 100
2018-02-02 06:00:00 -0.2 6 Norte 10 Norte 3.2 -- -- 100
2018-02-02 05:00:00 -0.2 3 Norte 8 Norte 2.4 -- -- 99
2018-02-02 04:00:00 0.2 6 Noroeste 19 Oeste 2.2 -- -- 97
2018-02-02 03:00:00 0.4 6 Norte 16 Norte 0.8 -- -- 97
2018-02-02 02:00:00 0.4 5 Norte 17 Norte 1.6 -- -- 98
2018-02-02 01:00:00 0.6 4 Este 14 Norte 1.2 -- -- 95
2018-02-02 00:00:00 0.9 5 Noroeste 28 Noroeste 1.2 -- -- 93
2018-02-01 23:00:00 0.5 6 Norte 17 Noroeste 1.2 -- -- 97
2018-02-01 22:00:00 0.4 5 Norte 14 Noroeste 2.6 -- -- 98
2018-02-01 21:00:00 0.2 6 Norte 17 Norte 1.6 -- -- 99
2018-02-01 20:00:00 0.6 6 Norte 17 Este 1.2 -- -- 96
2018-02-01 19:00:00 0.8 9 Norte 15 Norte 2.6 -- -- 96
2018-02-01 18:00:00 0.4 7 Norte 19 Norte 2 -- -- 98
2018-02-01 17:00:00 1.4 11 Norte 35 Noroeste 0.2 -- -- 93
2018-02-01 16:00:00 0.9 12 Norte 20 Norte 1.2 -- -- 96
2018-02-01 15:00:00 1.1 5 Norte 23 Norte 1.4 -- -- 97
2018-02-01 14:00:00 1.1 14 Norte 25 Norte 1 -- -- 98
2018-02-01 13:00:00 1.9 8 Norte 24 Noroeste 0.8 -- -- 98
2018-02-01 12:00:00 2.1 11 Norte 25 Noroeste 1.8 -- -- 97
2018-02-01 11:00:00 2.9 13 Norte 26 Norte 0.8 -- -- 96
2018-02-01 10:00:00 2.9 14 Norte 27 Noroeste 0.6 -- -- 95
2018-02-01 09:00:00 3 11 Norte 23 Norte 0.6 -- -- 96
2018-02-01 08:00:00 3.2 11 Norte 18 Noroeste 1.2 -- -- 96
2018-02-01 07:00:00 3.7 6 Norte 19 Norte 0.2 -- -- 94
2018-02-01 06:00:00 3.9 10 Norte 23 Norte 1.4 -- -- 96
2018-02-01 05:00:00 4.8 13 Norte 24 Norte 0.6 -- -- 95
2018-02-01 04:00:00 5.4 12 Norte 18 Norte 1.6 -- -- 98
2018-02-01 03:00:00 5.2 6 Norte 12 Noroeste 1.4 -- -- 99
2018-02-01 02:00:00 5 2 Sudeste 7 Noroeste 0.6 -- -- 97
2018-02-01 01:00:00 4.9 2 Sudeste 8 Sudeste 0.2 -- -- 97
2018-02-01 00:00:00 4.8 5 Sudeste 8 Sudeste 0.2 -- -- 96
2018-01-31 23:00:00 5.2 0 Calma 6 Sudeste 0 -- -- 87
2018-01-31 22:00:00 5.2 4 Sudeste 11 Sudeste 0 -- -- 83
2018-01-31 21:00:00 4.6 4 Sudeste 13 Sudeste 0 -- -- 84
2018-01-31 20:00:00 4.2 4 Sudeste 10 Sudeste 0 -- -- 81
2018-01-31 19:00:00 5.5 2 Sudeste 12 Sudeste 0 -- -- 76
2018-01-31 18:00:00 6.8 6 Sudeste 12 Sudeste 0 -- -- 68
2018-01-31 17:00:00 7.7 7 Sudeste 12 Sudeste 0 -- -- 62
2018-01-31 16:00:00 9.3 6 Sudeste 14 Este 0 -- -- 54
2018-01-31 15:00:00 9.1 8 Sudeste 15 Sudeste 0 -- -- 50
2018-01-31 14:00:00 11.8 9 Sudeste 16 Sudeste 0 -- -- 40
2018-01-31 13:00:00 10.8 9 Sudeste 17 Sudeste 0 -- -- 45
2018-01-31 12:00:00 8.6 5 Sudeste 15 Sudeste 0 -- -- 56
2018-01-31 11:00:00 4.3 7 Sudeste 14 Sur 0 -- -- 70
2018-01-31 10:00:00 0.7 3 Sudeste 11 Sudeste 0 -- -- 88
2018-01-31 09:00:00 -0.1 2 Sudeste 10 Sudeste 0 -- -- 89
2018-01-31 08:00:00 0.3 5 Sudeste 14 Sudeste 0 -- -- 87
2018-01-31 07:00:00 0 2 Sudeste 11 Sudeste 0 -- -- 88
2018-01-31 06:00:00 0.4 2 Sudeste 10 Sudeste 0 -- -- 89
2018-01-31 05:00:00 0.9 8 Sudeste 11 Sudeste 0 -- -- 84
2018-01-31 04:00:00 0.5 3 Sudeste 10 Sudeste 0 -- -- 87
2018-01-31 03:00:00 0.8 2 Sudeste 13 Sudeste 0 -- -- 86
2018-01-31 02:00:00 0.8 3 Sudeste 11 Sudeste 0 -- -- 84
2018-01-31 01:00:00 0.8 2 Sur 15 Sudeste 0 -- -- 86
2018-01-31 00:00:00 1.4 5 Sudeste 14 Sudeste 0 -- -- 82
2018-01-30 23:00:00 1.5 5 Sudeste 10 Sur 0 -- -- 82
2018-01-30 22:00:00 2.1 6 Sudeste 11 Sudeste 0 -- -- 80
2018-01-30 21:00:00 2.3 2 Sudeste 12 Sudeste 0 -- -- 82
2018-01-30 20:00:00 3.3 8 Sudeste 13 Sudeste 0 -- -- 77
2018-01-30 19:00:00 4.3 6 Sudeste 13 Sudeste 0 -- -- 74
2018-01-30 18:00:00 5.5 7 Sudeste 13 Sudeste 0 -- -- 70
2018-01-30 17:00:00 6 7 Sudeste 13 Sudeste 0 -- -- 69
2018-01-30 16:00:00 6.3 6 Sudeste 10 Sur 0 -- -- 66
2018-01-30 15:00:00 7.6 5 Sudeste 9 Sudeste 0 -- -- 63
2018-01-30 14:00:00 11.1 4 Sur 8 Noroeste 0 -- -- 46
2018-01-30 13:00:00 9.9 4 Noroeste 12 Sudeste 0 -- -- 45
2018-01-30 12:00:00 8.5 7 Sudeste 13 Sudeste 0 -- -- 58
2018-01-30 11:00:00 4.6 5 Sudeste 13 Sudeste 0 -- -- 69
2018-01-30 10:00:00 0.9 8 Sudeste 12 Sudeste 0 -- -- 83
2018-01-30 09:00:00 0.1 4 Sudeste 10 Sur 0 -- -- 88
2018-01-30 08:00:00 0.2 7 Sudeste 12 Sudeste 0 -- -- 85
2018-01-30 07:00:00 0.5 5 Sudeste 12 Sudeste 0 -- -- 85
2018-01-30 06:00:00 0.4 5 Sudeste 12 Sudeste 0 -- -- 86
2018-01-30 05:00:00 1 7 Sudeste 12 Sudeste 0 -- -- 83
2018-01-30 04:00:00 0.7 2 Sudeste 10 Sudeste 0 -- -- 87
2018-01-30 03:00:00 0.8 3 Sudeste 10 Sudeste 0 -- -- 87
2018-01-30 02:00:00 1.7 9 Sudeste 12 Sudeste 0 -- -- 83
2018-01-30 01:00:00 2 7 Sudeste 12 Sudeste 0 -- -- 81
2018-01-30 00:00:00 2 9 Sudeste 14 Sudeste 0 -- -- 83
2018-01-29 23:00:00 2.1 6 Sudeste 12 Sudeste 0 -- -- 84
2018-01-29 22:00:00 2.6 3 Sudeste 12 Sudeste 0 -- -- 83
2018-01-29 21:00:00 3.3 7 Sudeste 12 Este 0 -- -- 80
2018-01-29 20:00:00 4.3 6 Sudeste 11 Este 0 -- -- 76
2018-01-29 19:00:00 5.8 6 Sudeste 17 Sudeste 0 -- -- 68
2018-01-29 18:00:00 7.1 9 Sudeste 15 Sudeste 0 -- -- 62
2018-01-29 17:00:00 7.9 8 Sudeste 15 Este 0 -- -- 58
2018-01-29 16:00:00 7.8 10 Sudeste 17 Sudeste 0 -- -- 60
2018-01-29 15:00:00 8.2 8 Sudeste 15 Sudeste 0 -- -- 61
2018-01-29 14:00:00 11.1 8 Sudeste 15 Sudeste 0 -- -- 53
2018-01-29 13:00:00 10.4 9 Sudeste 15 Sudeste 0 -- -- 54
2018-01-29 12:00:00 8.7 8 Sudeste 15 Sudeste 0 -- -- 60
2018-01-29 11:00:00 5.8 7 Sudeste 13 Sudeste 0 -- -- 68
2018-01-29 10:00:00 2.3 6 Sudeste 12 Sudeste 0 -- -- 81
2018-01-29 09:00:00 1.6 8 Sudeste 14 Sur 0 -- -- 84
2018-01-29 08:00:00 0.8 3 Sudeste 9 Sur 0 -- -- 92
2018-01-29 07:00:00 1.5 2 Sudeste 10 Sudeste 0 -- -- 89
2018-01-29 06:00:00 1.4 2 Sudeste 13 Sudeste 0 -- -- 92
2018-01-29 05:00:00 1.7 5 Sudeste 11 Sur 0 -- -- 91
2018-01-29 04:00:00 2.3 2 Noroeste 6 Noroeste 0 -- -- 88
2018-01-29 03:00:00 2 2 Sudeste 11 Sudeste 0 -- -- 91
2018-01-29 02:00:00 1.8 2 Sudoeste 10 Sudeste 0 -- -- 93
2018-01-29 01:00:00 2.2 4 Sudeste 15 Sudeste 0 -- -- 89
2018-01-29 00:00:00 2.1 2 Este 11 Sudeste 0 -- -- 88
2018-01-28 23:00:00 1.7 5 Sudeste 13 Sudeste 0 -- -- 88
2018-01-28 22:00:00 1.9 3 Nordeste 14 Sudeste 0 -- -- 88
2018-01-28 21:00:00 2.3 7 Sudeste 13 Sudeste 0 -- -- 85
2018-01-28 20:00:00 2.8 6 Sudeste 12 Sudeste 0 -- -- 84
2018-01-28 19:00:00 3.1 7 Sudeste 13 Sudeste 0 -- -- 84
2018-01-28 18:00:00 4.2 8 Sudeste 16 Sudeste 0 -- -- 80
2018-01-28 17:00:00 4.7 7 Sudeste 13 Sudeste 0 -- -- 78
2018-01-28 16:00:00 5 7 Sudeste 13 Sur 0 -- -- 78
2018-01-28 15:00:00 5.4 3 Sur 13 Sur 0 -- -- 73
2018-01-28 14:00:00 8 6 Sudeste 12 Sudeste 0 -- -- 57
2018-01-28 13:00:00 7.1 7 Sudeste 13 Sudeste 0 -- -- 61
2018-01-28 12:00:00 5.1 6 Sudeste 13 Sudeste 0 -- -- 70
2018-01-28 11:00:00 2.2 6 Sudeste 10 Sudeste 0 -- -- 82
2018-01-28 10:00:00 -0.4 8 Sudeste 12 Sudeste 0 -- -- 93
2018-01-28 09:00:00 -0.7 0 Calma 9 Sudeste 0 -- -- 96
2018-01-28 08:00:00 -0.7 5 Sudeste 10 Sudeste 0 -- -- 97
2018-01-28 07:00:00 -0.8 3 Sudeste 7 Sudeste 0 -- -- 99
2018-01-28 06:00:00 -0.4 0 Calma 13 Sudeste 0 -- -- 98
2018-01-28 05:00:00 -0.2 0 Calma 9 Sudeste 0 -- -- 99
2018-01-28 04:00:00 0.1 2 Sudoeste 8 Sudeste 0 -- -- 99
2018-01-28 03:00:00 0.7 5 Sudeste 10 Sudeste 0.2 -- -- 99
2018-01-28 02:00:00 0.9 6 Sudeste 11 Sur 0 -- -- 99
2018-01-28 01:00:00 1.7 2 Sudeste 9 Sudeste 0 -- -- 97
2018-01-28 00:00:00 3.3 3 Sudeste 8 Sudeste 0 -- -- 98
2018-01-27 23:00:00 3.4 0 Calma 6 Sur 0 -- -- 99
2018-01-27 22:00:00 3.4 3 Sudeste 8 Sudeste 0 -- -- 99
2018-01-27 21:00:00 3.4 4 Sudeste 8 Sudeste 0.2 -- -- 99
2018-01-27 20:00:00 3.5 4 Sudeste 6 Sudeste 0.8 -- -- 99
2018-01-27 19:00:00 3.8 3 Sudeste 6 Sudeste 0.6 -- -- 98
2018-01-27 18:00:00 4.5 0 Calma 4 Norte 0.6 -- -- 97
2018-01-27 17:00:00 5 0 Calma 6 Noroeste 0.4 -- -- 97
2018-01-27 16:00:00 5.2 5 Norte 13 Noroeste 0.2 -- -- 96
2018-01-27 15:00:00 5.7 6 Noroeste 13 Noroeste 0 -- -- 89
2018-01-27 14:00:00 5.4 8 Norte 16 Norte 0 -- -- 89
2018-01-27 13:00:00 5.3 9 Norte 15 Norte 0 -- -- 88
2018-01-27 12:00:00 4.2 7 Norte 12 Noroeste 0 -- -- 96
2018-01-27 11:00:00 3.6 7 Norte 14 Norte 0 -- -- 99
2018-01-27 10:00:00 2.8 8 Norte 17 Noroeste 0.4 -- -- 100
2018-01-27 09:00:00 2.4 8 Noroeste 15 Norte 0.4 -- -- 100
2018-01-27 08:00:00 2 3 Noroeste 9 Noroeste 0 -- -- 100
2018-01-27 07:00:00 2 6 Noroeste 9 Noroeste 0.6 -- -- 100
2018-01-27 06:00:00 1.8 2 Norte 5 Norte 0.4 -- -- 100
2018-01-27 05:00:00 1.8 0 Calma 9 Noroeste 0.2 -- -- 100
2018-01-27 04:00:00 2 6 Noroeste 14 Norte 0 -- -- 99
2018-01-27 03:00:00 2.1 3 Norte 15 Norte 0.6 -- -- 99
2018-01-27 02:00:00 2.1 5 Norte 12 Norte 1 -- -- 99
2018-01-27 01:00:00 2.2 5 Norte 20 Norte 1.2 -- -- 96
2018-01-27 00:00:00 2.6 8 Noroeste 16 Norte 0.6 -- -- 97
2018-01-26 23:00:00 2.3 5 Noroeste 20 Noroeste 0.6 -- -- 98
2018-01-26 22:00:00 1.7 3 Noroeste 17 Norte 1.6 -- -- 98
2018-01-26 21:00:00 2.4 10 Noroeste 19 Noroeste 1.8 -- -- 98
2018-01-26 20:00:00 1.7 0 Calma 20 Noroeste 3.6 -- -- 97
2018-01-26 19:00:00 2.7 10 Norte 19 Noroeste 1.2 -- -- 97
2018-01-26 18:00:00 3 10 Norte 24 Norte 1.2 -- -- 95
2018-01-26 17:00:00 3.2 13 Norte 23 Norte 0.6 -- -- 95
2018-01-26 16:00:00 2.4 10 Norte 20 Norte 2.4 -- -- 98
2018-01-26 15:00:00 2 5 Norte 23 Norte 2.4 -- -- 98
2018-01-26 14:00:00 1.6 7 Norte 15 Norte 1.8 -- -- 100
2018-01-26 13:00:00 1.3 4 Noroeste 9 Noroeste 2.2 -- -- 99
2018-01-26 12:00:00 1 5 Noroeste 14 Norte 1.4 -- -- 98
2018-01-26 11:00:00 0.5 6 Norte 13 Norte 2.2 -- -- 100
2018-01-26 10:00:00 0.4 2 Norte 7 Noroeste 1.8 -- -- 100
2018-01-26 09:00:00 0.5 4 Norte 14 Norte 2 -- -- 100
2018-01-26 08:00:00 0.3 3 Norte 5 Noroeste 3 -- -- 100
2018-01-26 07:00:00 0.4 0 Calma 8 Noroeste 2 -- -- 100
2018-01-26 06:00:00 0.4 3 Noroeste 8 Noroeste 2.6 -- -- 99
2018-01-26 05:00:00 0.6 2 Este 5 Noroeste 1 -- -- 98
2018-01-26 04:00:00 0.6 0 Calma 11 Nordeste 1.6 -- -- 98
2018-01-26 03:00:00 1.3 5 Nordeste 12 Norte 1.6 -- -- 96
2018-01-26 02:00:00 2.4 0 Calma 4 Sudoeste 0 -- -- 96
2018-01-26 01:00:00 2.4 0 Calma 15 Norte 0 -- -- 96
2018-01-26 00:00:00 2.5 8 Norte 14 Norte 0 -- -- 97
2018-01-25 23:00:00 2.4 5 Noroeste 10 Noroeste 0.2 -- -- 97
2018-01-25 22:00:00 2.6 4 Norte 10 Nordeste 0 -- -- 95
2018-01-25 21:00:00 2.6 0 Calma 12 Norte 0 -- -- 96
2018-01-25 20:00:00 2.7 9 Norte 21 Noroeste 0.2 -- -- 93
2018-01-25 19:00:00 2.8 5 Noroeste 8 Noroeste 0 -- -- 97
2018-01-25 18:00:00 2.7 0 Calma 5 Oeste 0 -- -- 96
2018-01-25 17:00:00 2.5 0 Calma 8 Noroeste 0.6 -- -- 95
2018-01-25 16:00:00 2.3 4 Nordeste 15 Norte 2.6 -- -- 94
2018-01-25 15:00:00 3.3 2 Sudoeste 10 Sur 0.6 -- -- 94
2018-01-25 14:00:00 3.1 2 Sur 11 Norte 1.6 -- -- 91
2018-01-25 13:00:00 3.6 0 Calma 11 Sudeste 1.4 -- -- 91
2018-01-25 12:00:00 4.1 5 Sudeste 15 Oeste 2.6 -- -- 91
2018-01-25 11:00:00 5.1 3 Norte 16 Norte 2.6 -- -- 91
2018-01-25 10:00:00 6.2 8 Norte 16 Norte 0.4 -- -- 92
2018-01-25 09:00:00 7.3 5 Norte 20 Norte 0 -- -- 91
2018-01-25 08:00:00 8.2 3 Noroeste 13 Sudeste 0 -- -- 79
2018-01-25 07:00:00 9.1 4 Sudeste 17 Sudoeste 0 -- -- 71
2018-01-25 06:00:00 9.8 7 Sudeste 22 Sudeste 0 -- -- 68
2018-01-25 05:00:00 9.8 8 Sudeste 25 Sudeste 0 -- -- 68
2018-01-25 04:00:00 10.3 8 Sudeste 23 Sudeste 0 -- -- 66
2018-01-25 03:00:00 10 7 Sur 19 Sur 0 -- -- 68
2018-01-25 02:00:00 10 8 Sur 31 Sudeste 0 -- -- 68
2018-01-25 01:00:00 10.9 12 Sudeste 29 Sur 0 -- -- 65
2018-01-25 00:00:00 10 9 Este 15 Este 0 -- -- 67
2018-01-24 23:00:00 9.7 5 Este 26 Sudoeste 0 -- -- 68
2018-01-24 22:00:00 9.8 12 Sudeste 25 Sudeste 0 -- -- 64
2018-01-24 21:00:00 9 9 Sudeste 27 Sur 0 -- -- 62
2018-01-24 20:00:00 8.8 12 Sudeste 31 Sudeste 0 -- -- 60
2018-01-24 19:00:00 9.7 12 Sudeste 28 Sudeste 0 -- -- 56
2018-01-24 18:00:00 10.4 10 Sudeste 26 Sudeste 0 -- -- 53
2018-01-24 17:00:00 11.3 7 Sur 20 Sudeste 0 -- -- 48
2018-01-24 16:00:00 9.2 9 Sudeste 18 Sudeste 0 -- -- 55
2018-01-24 15:00:00 10 3 Sudeste 12 Noroeste 0 -- -- 60
2018-01-24 14:00:00 11.9 3 Sudoeste 12 Sur 0 -- -- 54
2018-01-24 13:00:00 10.5 5 Sudeste 11 Sur 0 -- -- 68
2018-01-24 12:00:00 7.9 2 Sudoeste 16 Noroeste 0 -- -- 83
2018-01-24 11:00:00 5 4 Sudeste 11 Sudeste 0 -- -- 88
2018-01-24 10:00:00 2.4 4 Sudeste 11 Sudeste 0 -- -- 94
2018-01-24 09:00:00 1.6 3 Sudeste 10 Norte 0 -- -- 93
2018-01-24 08:00:00 2.1 4 Noroeste 13 Sudeste 0 -- -- 91
2018-01-24 07:00:00 2.4 6 Sudeste 13 Sudeste 0 -- -- 93
2018-01-24 06:00:00 2.3 6 Sudeste 14 Sudeste 0 -- -- 87
2018-01-24 05:00:00 1.6 5 Sudeste 13 Sudeste 0 -- -- 88
2018-01-24 04:00:00 1.6 2 Norte 10 Sudeste 0 -- -- 90
2018-01-24 03:00:00 3.1 4 Sur 15 Sudeste 0 -- -- 86
2018-01-24 02:00:00 3.2 6 Sudeste 14 Sudeste 0 -- -- 93
2018-01-24 01:00:00 2.7 5 Sudeste 10 Sudeste 0 -- -- 97
2018-01-24 00:00:00 3.1 7 Sudeste 10 Sudeste 0 -- -- 97
2018-01-23 23:00:00 3.3 6 Sudeste 10 Sudeste 0 -- -- 97
2018-01-23 22:00:00 3.8 7 Sudeste 11 Sudeste 0 -- -- 95
2018-01-23 21:00:00 4.2 6 Sudeste 10 Sudeste 0 -- -- 95
2018-01-23 20:00:00 4.9 7 Sudeste 11 Sudeste 0 -- -- 93
2018-01-23 19:00:00 5.9 8 Sudeste 12 Sur 0 -- -- 92
2018-01-23 18:00:00 6.7 8 Sudeste 11 Sudeste 0 -- -- 90
2018-01-23 17:00:00 7.3 6 Sudeste 12 Sudeste 0 -- -- 89
2018-01-23 16:00:00 8 6 Sudeste 12 Sudeste 0 -- -- 87
2018-01-23 15:00:00 8.8 6 Sudeste 10 Sudeste 0 -- -- 82
2018-01-23 14:00:00 11.9 4 Sur 8 Sudeste 0 -- -- 71
2018-01-23 13:00:00 10.9 4 Sur 11 Sudeste 0 -- -- 74
2018-01-23 12:00:00 8.9 5 Sudeste 11 Sudeste 0 -- -- 82
2018-01-23 11:00:00 5.9 4 Sudeste 11 Sudeste 0 -- -- 93
2018-01-23 10:00:00 4.2 5 Sudeste 10 Sudeste 0 -- -- 95
2018-01-23 09:00:00 3.4 6 Sudeste 10 Sudeste 0 -- -- 95
2018-01-23 08:00:00 3.5 5 Sudeste 10 Sudeste 0 -- -- 95
2018-01-23 07:00:00 4.1 4 Sudeste 10 Sudeste 0 -- -- 93
2018-01-23 06:00:00 4.1 4 Sudeste 10 Sudeste 0 -- -- 95
2018-01-23 05:00:00 4.5 4 Sudeste 8 Sudeste 0 -- -- 94
2018-01-23 04:00:00 4.7 7 Sudeste 10 Sudeste 0 -- -- 93
2018-01-23 03:00:00 4.6 7 Sudeste 13 Sudeste 0 -- -- 92
2018-01-23 02:00:00 4.2 7 Sudeste 11 Sur 0 -- -- 93
2018-01-23 01:00:00 4.9 6 Sudeste 10 Sudeste 0 -- -- 91
2018-01-23 00:00:00 5.6 6 Sudeste 12 Sudeste 0 -- -- 92
2018-01-22 23:00:00 6.7 4 Sudeste 10 Este 0 -- -- 90
2018-01-22 22:00:00 8.2 4 Sudeste 9 Sudeste 0 -- -- 88
2018-01-22 21:00:00 9 4 Sudeste 6 Sudeste 0 -- -- 88
2018-01-22 20:00:00 9.2 0 Calma 5 Norte 0 -- -- 87
2018-01-22 19:00:00 10.2 2 Sudeste 7 Sur 0 -- -- 83
2018-01-22 18:00:00 12.1 0 Calma 5 Noroeste 0 -- -- 77
2018-01-22 17:00:00 13.8 4 Noroeste 16 Noroeste 0 -- -- 69
2018-01-22 16:00:00 14 6 Norte 16 Noroeste 0 -- -- 67
2018-01-22 15:00:00 14.2 6 Noroeste 11 Noroeste 0 -- -- 63
2018-01-22 14:00:00 13.4 8 Noroeste 14 Noroeste 0 -- -- 59
2018-01-22 13:00:00 11.8 9 Sudeste 14 Sur 0 -- -- 58
2018-01-22 12:00:00 9.9 6 Sudeste 12 Sudeste 0 -- -- 66
2018-01-22 11:00:00 7.1 7 Sudeste 13 Sur 0 -- -- 76
2018-01-22 10:00:00 4 8 Sudeste 13 Sur 0 -- -- 83
2018-01-22 09:00:00 2.9 9 Sudeste 13 Sudeste 0 -- -- 86
2018-01-22 08:00:00 2.6 3 Sudeste 10 Sudeste 0 -- -- 90
2018-01-22 07:00:00 3.5 4 Sudeste 13 Sudeste 0 -- -- 86
2018-01-22 06:00:00 3.4 2 Sur 9 Sudeste 0 -- -- 88
2018-01-22 05:00:00 4.2 0 Calma 11 Sudeste 0 -- -- 88
2018-01-22 04:00:00 5 3 Oeste 12 Sudeste 0 -- -- 89
2018-01-22 03:00:00 4.5 9 Sudeste 12 Sudeste 0 -- -- 91
2018-01-22 02:00:00 5.1 8 Sudeste 12 Sudeste 0 -- -- 91
2018-01-22 01:00:00 5.4 7 Sudeste 10 Sudeste 0 -- -- 91
2018-01-22 00:00:00 5.5 6 Sudeste 10 Sudeste 0 -- -- 91